Latest Coastal Weather Observations for Low Isles

IDQ60701

Issued at 10:12 am EST Monday 29 May 2017 (issued every 10 minutes, with the page automatically refreshed every 10 minutes)

About coastal observations | Map of coastal stations | Coastal observations for QLD | Marine services | Other Formats
Station Details ID: 031037 Name: LOW ISLES LIGHTHOUSE Lat: -16.38 Lon: 145.56 Height: 2.9 m
Data from the previous 72 hours. | See also: Recent months at Low Isles
Date/Time
EST
Temp
°C
Wind Pressure Rain since
9am
mm
Weather Cloud Vis
km
Sea
Height
m
Swell
Dir  Spd
kts
Gust
kts
hPa Trend Height
m
Period
s
Dir
29/10:00am 24.7 SSE 17 19 1017.9 - 0.0 - - - - - - -
29/09:30am 24.3 SSE 16 19 1017.9 - 0.0 - - - - - - -
29/09:00am 23.9 SSE 16 19 1017.5 - 0.0 Haze Cloudy 10 - - - -
29/08:30am 23.6 SSE 14 17 1017.3 - 0.0 - - - - - - -
29/08:00am 23.5 SSE 15 17 1017.0 - 0.0 - - - - - - -
29/07:30am 23.4 SSE 16 19 1016.5 - 0.0 - - - - - - -
29/07:00am 23.3 SSE 16 19 1016.0 - 0.0 - - - - - - -
29/06:30am 23.4 SSE 17 19 1015.7 - 0.0 - - - - - - -
29/06:00am 23.4 SSE 17 20 1015.4 - 0.0 - - - - - - -
29/05:30am 23.4 SSE 17 19 1015.4 - 0.0 - - - - - - -
29/05:00am 23.6 SSE 17 19 1015.5 - 0.0 - - - - - - -
29/04:30am 23.6 SSE 15 18 1015.6 - 0.0 - - - - - - -
29/04:00am 23.6 SSE 15 18 1015.6 - 0.0 - - - - - - -
29/03:30am 23.6 SSE 15 17 1015.5 - 0.0 - - - - - - -
29/03:00am 23.7 SSE 15 17 1015.5 - 0.0 - - - - - - -
29/02:30am 23.7 SSE 15 16 1015.7 - 0.0 - - - - - - -
29/02:00am 23.6 SSE 14 16 1015.8 - 0.0 - - - - - - -
29/01:30am 23.7 SSE 16 18 1016.0 - 0.0 - - - - - - -
29/01:00am 23.6 SSE 16 18 1016.0 - 0.0 - - - - - - -
29/12:30am 23.7 SSE 17 19 1016.3 - 0.0 - - - - - - -
29/12:00am 23.8 SSE 18 20 1016.2 - 0.0 - - - - - - -
 
Date/Time
EST
Temp
°C
Wind Pressure Rain since
9am
mm
Weather Cloud Vis
km
Sea
Height
m
Swell
Dir  Spd
kts
Gust
kts
hPa Trend Height
m
Period
s
Dir
28/11:30pm 23.8 SSE 18 20 1016.5 - 0.0 - - - - - - -
28/11:00pm 23.9 SSE 17 19 1016.9 - 0.0 - - - - - - -
28/10:30pm 24.0 SSE 15 17 1016.9 - 0.0 - - - - - - -
28/10:00pm 24.0 SSE 16 18 1016.9 - 0.0 - - - - - - -
28/09:30pm 24.1 SSE 15 17 1017.0 - 0.0 - - - - - - -
28/09:00pm 24.2 SSE 18 20 1016.9 - 0.0 - - - - - - -
28/08:30pm 24.4 SE 19 22 1016.7 - 0.0 - - - - - - -
28/08:00pm 24.3 SSE 18 20 1016.6 - 0.0 - - - - - - -
28/07:30pm 24.3 SE 19 21 1016.2 - 0.0 - - - - - - -
28/07:00pm 24.1 SE 17 21 1015.8 - 0.0 - - - - - - -
28/06:30pm 24.1 SE 20 24 1015.4 - 0.0 - - - - - - -
28/06:00pm 24.2 SE 20 23 1015.0 - 0.0 - - - - - - -
28/05:30pm 24.4 SE 19 23 1014.6 - 0.0 - - - - - - -
28/05:00pm 25.0 SE 17 23 1014.3 - 0.0 - - - - - - -
28/04:30pm 25.3 ESE 20 23 1014.1 - 0.0 - - - - - - -
28/04:00pm 26.3 ESE 20 25 1013.9 - 0.0 - - - - - - -
28/03:30pm 26.6 SE 18 23 1013.9 - 0.0 - - - - - - -
28/03:00pm 27.0 SE 18 22 1013.9 - 0.0 - - - - - - -
28/02:30pm 26.6 SE 18 21 1014.3 - 0.0 - - - - - - -
28/02:00pm 26.5 SE 17 20 1014.6 - 0.0 - - - - - - -
28/01:30pm 26.6 SE 18 20 1014.8 - 0.0 - - - - - - -
28/01:00pm 27.2 SE 17 19 1015.3 - 0.0 - - - - - - -
28/12:30pm 26.8 SE 17 20 1015.5 - 0.0 - - - - - - -
28/12:00pm 27.7 SE 16 18 1015.8 - 0.0 - - - - - - -
28/11:30am 26.8 SE 15 18 1016.1 - 0.0 - - - - - - -
28/11:00am 26.0 SE 15 17 1016.2 - 0.0 - - - - - - -
28/10:30am 25.1 SSE 16 18 1016.4 - 0.0 - - - - - - -
28/10:00am 24.6 SSE 15 16 1016.5 - 0.0 - - - - - - -
28/09:30am 24.3 SSE 15 17 1016.6 - 0.0 - - - - - - -
28/09:00am 24.0 SSE 15 17 1016.1 - 0.0 Haze Mostly clear 10 - - - -
28/08:30am 23.9 SSE 15 17 1016.0 - 0.0 - - - - - - -
28/08:00am 23.8 SSE 15 17 1015.8 - 0.0 - - - - - - -
28/07:30am 23.7 SSE 16 18 1015.6 - 0.0 - - - - - - -
28/07:00am 23.6 SE 15 17 1015.4 - 0.0 - - - - - - -
28/06:30am 23.6 SSE 15 17 1015.1 - 0.0 - - - - - - -
28/06:00am 23.5 SSE 15 17 1014.8 - 0.0 - - - - - - -
28/05:30am 23.5 SSE 16 18 1014.7 - 0.0 - - - - - - -
28/05:00am 23.7 SSE 15 17 1014.6 - 0.0 - - - - - - -
28/04:30am 23.8 SSE 17 20 1014.5 - 0.0 - - - - - - -
28/04:00am 24.0 SSE 16 19 1014.6 - 0.0 - - - - - - -
28/03:30am 24.1 SSE 15 17 1015.0 - 0.0 - - - - - - -
28/03:00am 24.3 SSE 15 17 1015.1 - 0.0 - - - - - - -
28/02:30am 24.3 SSE 15 19 1015.6 - 0.0 - - - - - - -
28/02:00am 24.2 SSE 14 16 1016.0 - 0.0 - - - - - - -
28/01:30am 24.2 SSE 13 16 1016.4 - 0.0 - - - - - - -
28/01:00am 24.3 SSE 13 15 1016.5 - 0.0 - - - - - - -
28/12:30am 24.2 SSE 15 17 1016.6 - 0.0 - - - - - - -
28/12:00am 24.3 S 13 15 1016.7 - 0.0 - - - - - - -
 
Date/Time
EST
Temp
°C
Wind Pressure Rain since
9am
mm
Weather Cloud Vis
km
Sea
Height
m
Swell
Dir  Spd
kts
Gust
kts
hPa Trend Height
m
Period
s
Dir
27/11:30pm 24.3 S 12 14 1017.0 - 0.0 - - - - - - -
27/11:00pm 24.4 S 11 13 1017.2 - 0.0 - - - - - - -
27/10:30pm 24.4 S 12 15 1017.2 - 0.0 - - - - - - -
27/10:00pm 24.5 SSE 12 14 1017.1 - 0.0 - - - - - - -
27/09:30pm 24.6 SSE 15 17 1017.1 - 0.0 - - - - - - -
27/09:00pm 24.6 SSE 16 19 1016.9 - 0.0 - - - - - - -
27/08:30pm 24.6 SSE 15 17 1016.8 - 0.0 - - - - - - -
27/08:00pm 24.8 SSE 15 17 1016.5 - 0.0 - - - - - - -
27/07:30pm 24.7 SSE 13 14 1016.1 - 0.0 - - - - - - -
27/07:00pm 24.6 SSE 14 15 1015.9 - 0.0 - - - - - - -
27/06:30pm 24.6 SSE 13 15 1015.6 - 0.0 - - - - - - -
27/06:00pm 24.8 SE 13 15 1015.2 - 0.0 - - - - - - -
27/05:30pm 24.9 SE 12 15 1015.1 - 0.0 - - - - - - -
27/05:00pm 25.2 SE 13 15 1014.7 - 0.0 - - - - - - -
27/04:30pm 25.6 SE 13 16 1014.5 - 0.0 - - - - - - -
27/04:00pm 26.1 SE 14 16 1014.4 - 0.0 - - - - - - -
27/03:30pm 26.7 SE 14 17 1014.3 - 0.0 - - - - - - -
27/03:00pm 26.8 SE 15 18 1014.3 - 0.0 - - - - - - -
27/02:30pm 27.2 SE 15 17 1014.4 - 0.0 - - - - - - -
27/02:00pm 27.3 SE 14 17 1014.5 - 0.0 - - - - - - -
27/01:30pm 27.5 SE 16 18 1014.8 - 0.0 - - - - - - -
27/01:00pm 26.6 SSE 16 18 1015.2 - 0.0 - - - - - - -
27/12:30pm 27.0 SSE 15 17 1015.6 - 0.0 - - - - - - -
27/12:00pm 25.7 SSE 16 17 1015.9 - 0.0 - - - - - - -
27/11:30am 25.5 SSE 15 18 1016.3 - 0.0 - - - - - - -
27/11:00am 25.4 SSE 14 16 1016.6 - 0.0 - - - - - - -
27/10:30am 25.2 SSE 13 15 1016.9 - 0.0 - - - - - - -
27/10:00am 24.8 S 13 14 1017.0 - 0.0 - - - - - - -
27/09:30am 24.4 S 13 16 1017.0 - 0.0 - - - - - - -
27/09:00am 24.1 S 13 15 1016.8 - 0.0 Distant precip. Mostly cloudy 10 - - - -
27/08:30am 24.2 S 13 16 1016.7 - 0.0 - - - - - - -
27/08:00am 24.2 SSE 14 16 1016.3 - 0.0 - - - - - - -
27/07:30am 24.2 SSE 13 15 1016.1 - 0.0 - - - - - - -
27/07:00am 24.0 S 13 14 1015.8 - 0.0 - - - - - - -
27/06:30am 24.0 S 12 14 1015.5 - 0.0 - - - - - - -
27/06:00am 24.0 S 13 14 1015.2 - 0.0 - - - - - - -
27/05:30am 23.8 SSE 12 14 1015.1 - 0.0 - - - - - - -
27/05:00am 23.7 SSE 12 14 1015.1 - 0.0 - - - - - - -
27/04:30am 23.8 SSE 13 15 1014.9 - 0.0 - - - - - - -
27/04:00am 23.9 S 13 15 1015.0 - 0.0 - - - - - - -
27/03:30am 24.0 S 13 15 1014.9 - 0.0 - - - - - - -
27/03:00am 23.8 S 12 15 1015.1 - 0.0 - - - - - - -
27/02:30am 24.1 S 13 15 1015.5 - 0.0 - - - - - - -
27/02:00am 24.2 S 13 15 1016.0 - 0.0 - - - - - - -
27/01:30am 24.3 S 13 15 1016.3 - 0.0 - - - - - - -
27/01:00am 24.2 S 12 15 1016.5 - 0.0 - - - - - - -
27/12:30am 24.2 S 12 13 1016.4 - 0.0 - - - - - - -
27/12:00am 24.2 SSE 12 14 1016.3 - 0.0 - - - - - - -
 
Date/Time
EST
Temp
°C
Wind Pressure Rain since
9am
mm
Weather Cloud Vis
km
Sea
Height
m
Swell
Dir  Spd
kts
Gust
kts
hPa Trend Height
m
Period
s
Dir
26/11:30pm 24.1 SSE 13 15 1016.5 - 0.0 - - - - - - -
26/11:00pm 24.3 S 14 17 1016.6 - 0.0 - - - - - - -
26/10:30pm 24.3 S 14 16 1016.5 - 0.0 - - - - - - -
26/10:00pm 24.4 S 15 17 1016.4 - 0.0 - - - - - - -
26/09:30pm 24.4 SSE 17 19 1016.4 - 0.0 - - - - - - -
26/09:00pm 24.5 SSE 16 19 1016.2 - 0.0 - - - - - - -
26/08:30pm 24.6 SSE 19 23 1016.1 - 0.0 - - - - - - -
26/08:00pm 24.5 SSE 18 21 1016.0 - 0.0 - - - - - - -
26/07:30pm 24.7 SSE 17 19 1015.7 - 0.0 - - - - - - -
26/07:00pm 24.7 SSE 18 20 1015.1 - 0.0 - - - - - - -
26/06:30pm 24.9 SE 16 19 1014.7 - 0.0 - - - - - - -
26/06:00pm 24.8 SE 18 20 1014.4 - 0.0 - - - - - - -
26/05:30pm 25.1 SE 18 21 1014.5 - 0.0 - - - - - - -
26/05:00pm 25.1 SE 17 20 1014.2 - 0.0 - - - - - - -
26/04:30pm 25.6 SE 18 20 1014.1 - 0.0 - - - - - - -
26/04:00pm 25.9 SE 19 21 1014.0 - 0.0 - - - - - - -
26/03:30pm 26.3 SE 18 22 1014.0 - 0.0 - - - - - - -
26/03:00pm 27.0 SE 18 21 1013.8 - 0.0 - - - - - - -
26/02:30pm 26.9 SE 17 21 1014.2 - 0.0 - - - - - - -
26/02:00pm 26.8 SE 18 21 1014.5 - 0.0 - - - - - - -
26/01:30pm 27.0 SE 19 22 1014.8 - 0.0 - - - - - - -
26/01:00pm 27.6 SE 18 21 1015.2 - 0.0 - - - - - - -
26/12:30pm 27.3 SE 18 21 1015.6 - 0.0 - - - - - - -
26/12:00pm 26.9 SE 19 22 1015.7 - 0.0 - - - - - - -
26/11:30am 26.8 SE 19 23 1016.2 - 0.0 - - - - - - -
26/11:00am 26.5 SE 18 22 1016.3 - 0.0 - - - - - - -
26/10:30am 26.1 SE 16 20 1016.7 - 0.0 - - - - - - -

Other Formats:

Comma delimited format used in spreadsheet applications
http://www.bom.gov.au/fwo/IDQ60701/IDQ60701.94285.axf

JavaScript Object Notation format (JSON) in row-major order
http://www.bom.gov.au/fwo/IDQ60701/IDQ60701.94285.json